createdAt,value
2018-05-27T00:01:09.105Z,97.70
2018-05-27T00:03:37.372Z,97.80
2018-05-27T00:06:06.398Z,98.20
2018-05-27T00:08:34.668Z,98.20
2018-05-27T00:11:02.979Z,98.40
2018-05-27T00:13:31.247Z,98.50
2018-05-27T00:15:59.513Z,98.50
2018-05-27T00:18:27.776Z,98.80
2018-05-27T00:20:56.822Z,99.00
2018-05-27T00:23:25.089Z,98.90
2018-05-27T00:25:53.347Z,99.00
2018-05-27T00:28:21.630Z,99.30
2018-05-27T00:30:50.799Z,99.90
2018-05-27T00:33:19.179Z,99.90
2018-05-27T00:35:48.960Z,99.90
2018-05-27T00:38:17.593Z,99.90
2018-05-27T00:40:45.865Z,99.60
2018-05-27T00:43:14.215Z,99.50
2018-05-27T00:45:42.491Z,99.40
2018-05-27T00:48:10.755Z,99.40
2018-05-27T00:50:39.060Z,99.70
2018-05-27T00:53:07.309Z,99.50
2018-05-27T00:55:35.631Z,99.50
2018-05-27T00:58:03.907Z,99.40
2018-05-27T01:00:32.282Z,99.10
2018-05-27T01:03:01.185Z,99.00
2018-05-27T01:05:29.572Z,98.90
2018-05-27T01:07:57.845Z,98.90
2018-05-27T01:10:26.132Z,99.00
2018-05-27T01:12:54.428Z,99.10
2018-05-27T01:15:22.707Z,99.10
2018-05-27T01:17:50.971Z,99.00
2018-05-27T01:20:19.350Z,99.00
2018-05-27T01:22:47.733Z,99.00
2018-05-27T01:25:16.453Z,99.00
2018-05-27T01:27:46.232Z,99.00
2018-05-27T01:30:14.512Z,99.00
2018-05-27T01:32:42.765Z,99.00
2018-05-27T01:35:11.035Z,98.80
2018-05-27T01:37:40.057Z,99.40
2018-05-27T01:40:08.364Z,99.40
2018-05-27T01:42:36.612Z,99.10
2018-05-27T01:45:04.924Z,99.00
2018-05-27T01:47:33.236Z,99.10
2018-05-27T01:50:01.489Z,99.20
2018-05-27T01:52:29.733Z,99.20
2018-05-27T01:54:58.048Z,99.20
2018-05-27T01:57:26.336Z,99.20
2018-05-27T01:59:54.714Z,99.20
2018-05-27T02:02:22.970Z,99.10
2018-05-27T02:04:51.253Z,99.10
2018-05-27T02:07:19.510Z,99.10
2018-05-27T02:09:48.655Z,99.30
2018-05-27T02:12:16.967Z,99.30
2018-05-27T02:14:45.214Z,99.40
2018-05-27T02:17:13.499Z,99.50
2018-05-27T02:19:41.775Z,99.40
2018-05-27T02:22:10.056Z,99.50
2018-05-27T02:24:38.338Z,99.50
2018-05-27T02:27:06.626Z,99.90
2018-05-27T02:29:34.919Z,99.90
2018-05-27T02:32:03.198Z,99.90
2018-05-27T02:34:31.465Z,99.90
2018-05-27T02:37:00.568Z,99.90
2018-05-27T02:39:28.854Z,99.90
2018-05-27T02:41:57.109Z,99.90
2018-05-27T02:44:25.399Z,99.90
2018-05-27T02:46:53.644Z,99.90
2018-05-27T02:49:22.698Z,99.90
2018-05-27T02:51:50.953Z,99.90
2018-05-27T02:54:19.220Z,99.90
2018-05-27T02:56:47.524Z,99.90
2018-05-27T02:59:15.793Z,99.90
2018-05-27T03:01:44.838Z,99.90
2018-05-27T03:04:13.203Z,99.90
2018-05-27T03:06:41.471Z,99.90
2018-05-27T03:09:09.742Z,99.90
2018-05-27T03:11:38.041Z,99.90
2018-05-27T03:14:06.305Z,99.90
2018-05-27T03:16:34.562Z,99.90
2018-05-27T03:19:02.812Z,99.90
2018-05-27T03:21:31.156Z,99.90
2018-05-27T03:23:59.433Z,99.90
2018-05-27T03:26:27.709Z,99.90
2018-05-27T03:28:55.977Z,99.90
2018-05-27T03:31:24.279Z,99.90
2018-05-27T03:33:52.534Z,99.90
2018-05-27T03:36:20.827Z,99.90
2018-05-27T03:38:49.085Z,99.90
2018-05-27T03:41:17.352Z,99.90
2018-05-27T03:43:46.557Z,99.90
2018-05-27T03:46:15.604Z,99.90
2018-05-27T03:48:43.875Z,99.90
2018-05-27T03:51:12.136Z,99.90
2018-05-27T03:53:40.392Z,99.90
2018-05-27T03:56:09.428Z,99.90
2018-05-27T03:58:37.685Z,99.90
2018-05-27T04:01:05.984Z,99.90
2018-05-27T04:03:34.236Z,99.90
2018-05-27T04:06:14.609Z,99.90
2018-05-27T04:08:42.859Z,99.90
2018-05-27T04:11:11.233Z,99.90
2018-05-27T04:13:39.460Z,99.90
2018-05-27T04:16:08.791Z,99.90
2018-05-27T04:18:37.069Z,99.90
2018-05-27T04:21:05.336Z,99.90
2018-05-27T04:23:33.586Z,99.90
2018-05-27T04:26:02.734Z,99.90
2018-05-27T04:28:31.071Z,99.90
2018-05-27T04:30:59.319Z,99.90
2018-05-27T04:33:27.672Z,99.90
2018-05-27T04:35:55.952Z,99.90
2018-05-27T04:38:24.211Z,99.90
2018-05-27T04:40:52.513Z,99.90
2018-05-27T04:43:20.764Z,99.90
2018-05-27T04:45:49.048Z,99.90
2018-05-27T04:48:17.366Z,99.90
2018-05-27T04:50:45.638Z,99.90
2018-05-27T04:53:13.893Z,99.90
2018-05-27T04:55:42.169Z,99.90
2018-05-27T04:58:10.424Z,99.90
2018-05-27T05:00:39.478Z,99.90
2018-05-27T05:03:07.771Z,99.90
2018-05-27T05:05:36.043Z,99.90
2018-05-27T05:08:04.305Z,99.90
2018-05-27T05:10:32.596Z,99.90
2018-05-27T05:13:00.886Z,99.90
2018-05-27T05:15:29.158Z,99.90
2018-05-27T05:17:57.413Z,99.90
2018-05-27T05:20:25.688Z,99.90
2018-05-27T05:22:53.974Z,99.90
2018-05-27T05:25:23.136Z,99.90
2018-05-27T05:27:52.905Z,99.90
2018-05-27T05:30:21.183Z,99.90
2018-05-27T05:32:49.457Z,99.90
2018-05-27T05:35:18.001Z,99.90
2018-05-27T05:37:46.336Z,99.70
2018-05-27T05:40:14.661Z,99.10
2018-05-27T05:42:43.728Z,98.30
2018-05-27T05:45:12.090Z,98.30
2018-05-27T05:47:40.354Z,97.70
2018-05-27T05:50:09.365Z,97.00
2018-05-27T05:52:37.665Z,97.00
2018-05-27T05:55:05.920Z,96.70
2018-05-27T05:57:34.226Z,96.40
2018-05-27T06:00:02.516Z,96.60
2018-05-27T06:02:31.553Z,96.30
2018-05-27T06:04:59.813Z,96.10
2018-05-27T06:07:28.127Z,96.10
2018-05-27T06:09:57.139Z,96.00
2018-05-27T06:12:26.081Z,95.90
2018-05-27T06:14:54.475Z,96.00
2018-05-27T06:17:22.751Z,96.10
2018-05-27T06:19:51.002Z,95.30
2018-05-27T06:22:19.315Z,95.30
2018-05-27T06:24:48.518Z,95.60
2018-05-27T06:27:16.789Z,95.50
2018-05-27T06:29:45.061Z,95.80
2018-05-27T06:32:13.352Z,95.70
2018-05-27T06:34:41.623Z,95.20
2018-05-27T06:37:09.949Z,94.50
2018-05-27T06:39:38.199Z,93.50
2018-05-27T06:42:06.489Z,94.40
2018-05-27T06:44:34.757Z,93.10
2018-05-27T06:47:03.144Z,93.40
2018-05-27T06:49:31.405Z,92.00
2018-05-27T06:51:59.668Z,91.70
2018-05-27T06:54:27.915Z,92.00
2018-05-27T06:56:56.973Z,91.00
2018-05-27T06:59:25.228Z,91.20
2018-05-27T07:01:53.536Z,90.60
2018-05-27T07:04:21.912Z,90.00
2018-05-27T07:06:50.161Z,90.50
2018-05-27T07:09:18.510Z,90.20
2018-05-27T07:11:46.737Z,90.60
2018-05-27T07:14:15.042Z,89.30
2018-05-27T07:16:43.297Z,86.90
2018-05-27T07:19:11.561Z,85.90
2018-05-27T07:21:40.581Z,83.10
2018-05-27T07:24:08.837Z,83.00
2018-05-27T07:26:37.881Z,83.30
2018-05-27T07:29:06.391Z,83.10
2018-05-27T07:31:35.090Z,83.10
2018-05-27T07:34:03.560Z,82.00
2018-05-27T07:36:32.679Z,81.00
2018-05-27T07:39:01.033Z,80.90
2018-05-27T07:41:29.340Z,80.20
2018-05-27T07:43:57.714Z,79.30
2018-05-27T07:46:26.013Z,78.30
2018-05-27T07:48:54.362Z,73.70
2018-05-27T07:51:22.620Z,72.50
2018-05-27T07:53:50.889Z,71.80
2018-05-27T07:56:19.203Z,70.00
2018-05-27T07:58:47.480Z,69.90
2018-05-27T08:01:15.728Z,68.00
2018-05-27T08:03:44.042Z,65.90
2018-05-27T08:06:12.284Z,66.40
2018-05-27T08:08:41.324Z,65.40
2018-05-27T08:11:09.609Z,65.30
2018-05-27T08:13:37.889Z,63.50
2018-05-27T08:16:06.153Z,63.00
2018-05-27T08:18:34.405Z,61.20
2018-05-27T08:21:03.544Z,60.10
2018-05-27T08:23:31.832Z,60.10
2018-05-27T08:26:00.105Z,60.30
2018-05-27T08:28:28.354Z,59.40
2018-05-27T08:30:57.528Z,59.40
2018-05-27T08:33:26.663Z,57.70
2018-05-27T08:35:55.141Z,57.80
2018-05-27T08:38:23.466Z,57.40
2018-05-27T08:40:51.775Z,58.00
2018-05-27T08:43:20.031Z,59.10
2018-05-27T08:45:48.341Z,57.10
2018-05-27T08:48:16.615Z,57.50
2018-05-27T08:50:44.881Z,57.00
2018-05-27T08:53:13.143Z,57.80
2018-05-27T08:55:41.412Z,58.40
2018-05-27T08:58:09.704Z,57.50
2018-05-27T09:00:37.987Z,57.60
2018-05-27T09:03:06.259Z,57.60
2018-05-27T09:05:34.729Z,57.30
2018-05-27T09:08:03.174Z,57.60
2018-05-27T09:10:31.654Z,59.40
2018-05-27T09:13:00.141Z,59.40
2018-05-27T09:15:28.464Z,59.80
2018-05-27T09:17:56.713Z,60.00
2018-05-27T09:20:24.976Z,60.00
2018-05-27T09:22:53.337Z,60.70
2018-05-27T09:25:21.622Z,60.10
2018-05-27T09:27:49.873Z,60.30
2018-05-27T09:30:18.149Z,60.30
2018-05-27T09:32:46.426Z,60.80
2018-05-27T09:35:15.464Z,61.80
2018-05-27T09:37:43.739Z,61.80
2018-05-27T09:40:12.016Z,61.20
2018-05-27T09:42:40.263Z,61.10
2018-05-27T09:45:09.343Z,60.10
2018-05-27T09:47:37.586Z,60.20
2018-05-27T09:50:05.840Z,60.60
2018-05-27T09:52:34.097Z,59.70
2018-05-27T09:55:03.105Z,58.60
2018-05-27T09:57:31.411Z,58.60
2018-05-27T09:59:59.724Z,59.00
2018-05-27T10:02:27.924Z,58.30
2018-05-27T10:04:56.938Z,57.90
2018-05-27T10:07:25.959Z,57.10
2018-05-27T10:09:54.199Z,57.10
2018-05-27T10:12:22.547Z,57.20
2018-05-27T10:14:50.809Z,58.00
2018-05-27T10:17:19.080Z,56.80
2018-05-27T10:19:47.407Z,56.50
2018-05-27T10:22:15.641Z,54.60
2018-05-27T10:24:43.888Z,53.90
2018-05-27T10:27:12.473Z,53.40
2018-05-27T10:29:40.208Z,53.40
2018-05-27T10:32:08.294Z,53.00
2018-05-27T10:34:36.036Z,53.30
2018-05-27T10:37:03.871Z,51.90
2018-05-27T10:39:31.594Z,52.40
2018-05-27T10:41:59.309Z,52.60
2018-05-27T10:44:27.113Z,51.80
2018-05-27T10:46:54.885Z,52.20
2018-05-27T10:49:22.601Z,50.80
2018-05-27T10:51:51.068Z,50.80
2018-05-27T10:54:19.537Z,49.60
2018-05-27T10:56:47.291Z,49.60
2018-05-27T10:59:15.089Z,49.90
2018-05-27T11:01:43.564Z,50.80
2018-05-27T11:04:11.261Z,50.70
2018-05-27T11:06:39.792Z,52.50
2018-05-27T11:09:07.480Z,52.40
2018-05-27T11:11:35.229Z,50.70
2018-05-27T11:14:02.916Z,51.30
2018-05-27T11:16:30.671Z,49.60
2018-05-27T11:18:58.360Z,48.50
2018-05-27T11:21:26.123Z,47.80
2018-05-27T11:23:53.814Z,47.70
2018-05-27T11:26:22.325Z,49.30
2018-05-27T11:28:50.169Z,49.20
2018-05-27T11:31:18.214Z,49.40
2018-05-27T11:33:45.939Z,49.30
2018-05-27T11:36:13.841Z,49.70
2018-05-27T11:38:41.733Z,51.40
2018-05-27T11:41:09.850Z,51.00
2018-05-27T11:43:37.668Z,51.40
2018-05-27T11:46:05.338Z,51.30
2018-05-27T11:48:33.131Z,52.00
2018-05-27T11:51:00.850Z,51.60
2018-05-27T11:53:28.581Z,52.80
2018-05-27T11:55:57.029Z,52.90
2018-05-27T11:58:24.739Z,52.90
2018-05-27T12:00:52.447Z,52.40
2018-05-27T12:03:20.149Z,52.40
2018-05-27T12:05:47.884Z,52.00
2018-05-27T12:08:15.655Z,52.00
2018-05-27T12:10:43.439Z,52.90
2018-05-27T12:13:11.145Z,54.00
2018-05-27T12:15:38.830Z,54.20
2018-05-27T12:18:06.535Z,54.60
2018-05-27T12:20:34.296Z,55.20
2018-05-27T12:23:02.010Z,55.00
2018-05-27T12:25:30.548Z,53.80
2018-05-27T12:27:58.252Z,53.70
2018-05-27T12:30:26.947Z,54.70
2018-05-27T12:32:55.732Z,55.20
2018-05-27T12:35:23.991Z,55.20
2018-05-27T12:37:51.778Z,54.70
2018-05-27T12:40:19.481Z,55.10
2018-05-27T12:42:47.210Z,56.50
2018-05-27T12:45:14.882Z,55.20
2018-05-27T12:47:43.435Z,54.30
2018-05-27T12:50:11.198Z,54.30
2018-05-27T12:52:38.998Z,53.90
2018-05-27T12:55:07.434Z,54.20
2018-05-27T12:57:35.139Z,54.20
2018-05-27T13:00:02.839Z,54.20
2018-05-27T13:02:31.309Z,53.50
2018-05-27T13:04:59.770Z,52.70
2018-05-27T13:07:27.624Z,52.70
2018-05-27T13:09:55.322Z,52.30
2018-05-27T13:12:23.057Z,52.10
2018-05-27T13:14:50.831Z,52.40
2018-05-27T13:17:18.597Z,52.80
2018-05-27T13:19:46.368Z,54.10
2018-05-27T13:22:14.139Z,53.90
2018-05-27T13:24:41.828Z,53.60
2018-05-27T13:27:10.388Z,54.80
2018-05-27T13:29:38.124Z,54.80
2018-05-27T13:32:05.924Z,55.90
2018-05-27T13:34:33.696Z,54.40
2018-05-27T13:37:01.461Z,54.60
2018-05-27T13:39:29.228Z,54.80
2018-05-27T13:41:56.950Z,56.30
2018-05-27T13:44:25.437Z,56.20
2018-05-27T13:46:53.112Z,56.20
2018-05-27T13:49:20.810Z,56.50
2018-05-27T13:51:48.587Z,56.10
2018-05-27T13:54:16.357Z,55.80
2018-05-27T13:56:44.052Z,56.30
2018-05-27T13:59:11.791Z,55.80
2018-05-27T14:01:39.486Z,54.30
2018-05-27T14:04:07.220Z,54.60
2018-05-27T14:06:34.987Z,54.90
2018-05-27T14:09:02.701Z,55.00
2018-05-27T14:11:31.173Z,56.30
2018-05-27T14:13:58.920Z,56.30
2018-05-27T14:16:26.672Z,56.90
2018-05-27T14:18:54.383Z,56.30
2018-05-27T14:21:22.836Z,56.80
2018-05-27T14:23:50.552Z,56.80
2018-05-27T14:26:18.248Z,56.40
2018-05-27T14:28:46.207Z,56.80
2018-05-27T14:31:13.961Z,56.60
2018-05-27T14:33:42.534Z,56.40
2018-05-27T14:36:10.817Z,56.30
2018-05-27T14:38:38.761Z,55.50
2018-05-27T14:41:06.548Z,55.70
2018-05-27T14:43:35.218Z,55.70
2018-05-27T14:46:03.776Z,58.40
2018-05-27T14:48:31.595Z,57.70
2018-05-27T14:50:59.337Z,55.90
2018-05-27T14:53:27.046Z,57.10
2018-05-27T14:58:35.388Z,57.30
2018-05-27T15:01:03.924Z,56.60
2018-05-27T15:03:31.639Z,56.60
2018-05-27T15:06:00.095Z,55.50
2018-05-27T15:08:27.857Z,55.50
2018-05-27T15:10:55.591Z,56.40
2018-05-27T15:13:23.375Z,56.40
2018-05-27T15:15:51.146Z,58.50
2018-05-27T15:18:19.299Z,57.60
2018-05-27T15:20:47.544Z,59.00
2018-05-27T15:23:16.565Z,60.00
2018-05-27T15:25:44.861Z,60.00
2018-05-27T15:28:13.648Z,59.70
2018-05-27T15:30:42.089Z,62.20
2018-05-27T15:33:10.419Z,63.50
2018-05-27T15:35:38.661Z,65.20
2018-05-27T15:38:07.702Z,64.60
2018-05-27T15:40:35.994Z,64.50
2018-05-27T15:43:04.266Z,61.70
2018-05-27T15:45:32.540Z,62.10
2018-05-27T15:48:00.855Z,62.70
2018-05-27T15:50:29.098Z,63.30
2018-05-27T15:52:57.365Z,63.90
2018-05-27T15:55:25.672Z,64.50
2018-05-27T15:57:53.915Z,65.40
2018-05-27T16:00:22.223Z,66.80
2018-05-27T16:02:50.485Z,68.20
2018-05-27T16:05:18.726Z,68.80
2018-05-27T16:07:46.997Z,69.00
2018-05-27T16:10:15.240Z,69.30
2018-05-27T16:12:43.531Z,70.00
2018-05-27T16:15:11.769Z,69.90
2018-05-27T16:17:40.823Z,70.50
2018-05-27T16:20:09.089Z,70.30
2018-05-27T16:22:37.352Z,71.40
2018-05-27T16:25:05.649Z,72.20
2018-05-27T16:27:33.937Z,72.10
2018-05-27T16:30:03.270Z,73.00
2018-05-27T16:32:31.962Z,73.00
2018-05-27T16:35:01.363Z,73.00
2018-05-27T16:37:29.660Z,72.90
2018-05-27T16:39:57.907Z,71.90
2018-05-27T16:42:26.158Z,72.10
2018-05-27T16:44:54.425Z,72.80
2018-05-27T16:47:22.736Z,73.40
2018-05-27T16:49:51.079Z,73.00
2018-05-27T16:52:20.149Z,73.30
2018-05-27T16:54:48.378Z,73.20
2018-05-27T16:57:16.665Z,73.70
2018-05-27T16:59:44.920Z,73.70
2018-05-27T17:02:13.226Z,74.50
2018-05-27T17:04:41.481Z,74.10
2018-05-27T17:07:09.729Z,74.10
2018-05-27T17:09:38.077Z,74.10
2018-05-27T17:12:06.339Z,73.70
2018-05-27T17:14:34.636Z,74.00
2018-05-27T17:17:02.916Z,73.30
2018-05-27T17:19:31.179Z,74.00
2018-05-27T17:21:59.478Z,73.40
2018-05-27T17:24:27.762Z,74.00
2018-05-27T17:26:56.778Z,74.50
2018-05-27T17:29:25.163Z,74.80
2018-05-27T17:31:53.539Z,74.60
2018-05-27T17:34:21.811Z,75.30
2018-05-27T17:36:50.080Z,75.30
2018-05-27T17:39:18.346Z,76.60
2018-05-27T17:41:46.595Z,76.80
2018-05-27T17:44:14.922Z,76.40
2018-05-27T17:46:42.808Z,76.90
2018-05-27T17:49:10.532Z,77.80
2018-05-27T17:51:38.996Z,78.70
2018-05-27T17:54:06.874Z,78.60
2018-05-27T17:56:35.475Z,78.60
2018-05-27T17:59:03.972Z,80.90
2018-05-27T18:01:32.507Z,80.80
2018-05-27T18:04:00.244Z,80.80
2018-05-27T18:06:27.955Z,82.60
2018-05-27T18:08:55.701Z,82.90
2018-05-27T18:11:23.476Z,83.40
2018-05-27T18:13:51.223Z,82.80
2018-05-27T18:16:18.921Z,84.30
2018-05-27T18:18:46.638Z,83.70
2018-05-27T18:21:14.344Z,83.30
2018-05-27T18:23:42.125Z,82.60
2018-05-27T18:26:09.880Z,83.10
2018-05-27T18:28:37.645Z,83.30
2018-05-27T18:31:05.347Z,83.80
2018-05-27T18:33:33.901Z,82.70
2018-05-27T18:36:01.608Z,82.50
2018-05-27T18:38:29.315Z,82.90
2018-05-27T18:40:57.014Z,82.30
2018-05-27T18:43:24.728Z,81.50
2018-05-27T18:45:52.416Z,81.00
2018-05-27T18:48:20.208Z,79.40
2018-05-27T18:50:47.992Z,79.00
2018-05-27T18:53:15.733Z,78.10
2018-05-27T18:55:43.425Z,78.60
2018-05-27T18:58:11.149Z,78.40
2018-05-27T19:00:38.828Z,78.60
2018-05-27T19:03:06.530Z,79.00
2018-05-27T19:05:34.238Z,79.00
2018-05-27T19:08:01.949Z,79.60
2018-05-27T19:10:29.715Z,80.40
2018-05-27T19:12:57.478Z,80.70
2018-05-27T19:15:25.276Z,81.30
2018-05-27T19:17:52.955Z,80.80
2018-05-27T19:20:21.525Z,81.70
2018-05-27T19:22:49.218Z,81.60
2018-05-27T19:25:17.861Z,82.00
2018-05-27T19:27:45.575Z,81.90
2018-05-27T19:30:14.050Z,82.40
2018-05-27T19:32:42.530Z,82.40
2018-05-27T19:35:10.238Z,82.40
2018-05-27T19:37:38.034Z,82.60
2018-05-27T19:40:05.800Z,82.80
2018-05-27T19:42:33.586Z,83.70
2018-05-27T19:45:01.293Z,83.40
2018-05-27T19:47:29.881Z,83.40
2018-05-27T19:49:57.582Z,83.40
2018-05-27T19:52:25.307Z,83.70
2018-05-27T19:54:54.081Z,83.80
2018-05-27T19:57:21.827Z,85.00
2018-05-27T19:59:49.566Z,85.00
2018-05-27T20:02:17.260Z,84.90
2018-05-27T20:04:44.975Z,84.70
2018-05-27T20:07:13.499Z,85.60
2018-05-27T20:09:41.205Z,85.60
2018-05-27T20:12:08.916Z,86.70
2018-05-27T20:14:37.387Z,86.70
2018-05-27T20:17:05.926Z,86.70
2018-05-27T20:19:33.632Z,86.60
2018-05-27T20:22:02.171Z,86.70
2018-05-27T20:24:29.936Z,86.70
2018-05-27T20:26:57.668Z,86.40
2018-05-27T20:29:26.147Z,86.80
2018-05-27T20:31:54.613Z,87.30
2018-05-27T20:34:22.320Z,87.30
2018-05-27T20:36:50.015Z,87.20
2018-05-27T20:39:17.824Z,87.60
2018-05-27T20:41:45.561Z,87.90
2018-05-27T20:44:13.267Z,88.10
2018-05-27T20:46:41.809Z,88.10
2018-05-27T20:49:09.528Z,88.00
2018-05-27T20:51:38.064Z,87.50
2018-05-27T20:54:05.778Z,87.50
2018-05-27T20:56:34.362Z,87.50
2018-05-27T20:59:02.089Z,87.50
2018-05-27T21:01:29.796Z,86.60
2018-05-27T21:03:58.287Z,82.00
2018-05-27T21:06:26.013Z,82.00
2018-05-27T21:08:53.738Z,81.70
2018-05-27T21:11:21.427Z,81.70
2018-05-27T21:13:49.218Z,81.10
2018-05-27T21:16:16.976Z,81.10
2018-05-27T21:18:44.779Z,80.90
2018-05-27T21:21:12.519Z,80.30
2018-05-27T21:23:40.310Z,80.40
2018-05-27T21:26:08.918Z,80.90
2018-05-27T21:28:37.391Z,82.00
2018-05-27T21:31:05.144Z,82.80
2018-05-27T21:33:32.920Z,82.20
2018-05-27T21:36:00.614Z,82.30
2018-05-27T21:38:29.084Z,82.80
2018-05-27T21:40:56.828Z,82.70
2018-05-27T21:43:24.562Z,82.80
2018-05-27T21:45:52.279Z,83.00
2018-05-27T21:48:20.024Z,83.00
2018-05-27T21:50:47.802Z,82.90
2018-05-27T21:53:15.681Z,83.00
2018-05-27T21:55:43.367Z,82.90
2018-05-27T21:58:11.333Z,83.40
2018-05-27T22:00:39.076Z,83.90
2018-05-27T22:03:06.840Z,83.70
2018-05-27T22:05:34.618Z,84.00
2018-05-27T22:08:02.320Z,84.00
2018-05-27T22:10:30.885Z,84.20
2018-05-27T22:12:58.558Z,84.10
2018-05-27T22:15:26.314Z,84.50
2018-05-27T22:17:54.071Z,85.00
2018-05-27T22:20:21.789Z,85.10
2018-05-27T22:22:50.253Z,84.40
2018-05-27T22:28:03.486Z,84.60
2018-05-27T22:30:31.256Z,84.70
2018-05-27T22:32:58.939Z,85.00
2018-05-27T22:35:26.676Z,85.70
2018-05-27T22:37:54.453Z,85.40
2018-05-27T22:40:22.170Z,85.50
2018-05-27T22:42:50.708Z,85.80
2018-05-27T22:45:18.414Z,85.60
2018-05-27T22:47:46.872Z,86.10
2018-05-27T22:50:14.591Z,86.10
2018-05-27T22:52:42.292Z,86.50
2018-05-27T22:55:09.993Z,86.90
2018-05-27T22:57:37.691Z,87.00
2018-05-27T23:00:05.399Z,87.00
2018-05-27T23:02:32.895Z,86.40
2018-05-27T23:05:00.628Z,86.40
2018-05-27T23:07:28.432Z,86.40
2018-05-27T23:09:56.104Z,86.60
2018-05-27T23:12:25.332Z,87.10
2018-05-27T23:14:53.858Z,87.60
2018-05-27T23:17:21.643Z,87.60
2018-05-27T23:19:49.500Z,88.20
2018-05-27T23:22:17.168Z,88.10
2018-05-27T23:24:44.874Z,88.20
2018-05-27T23:27:13.416Z,88.80
2018-05-27T23:29:41.129Z,88.80
2018-05-27T23:32:09.681Z,89.00
2018-05-27T23:34:37.442Z,89.70
2018-05-27T23:37:05.240Z,89.30
2018-05-27T23:39:32.912Z,89.40
2018-05-27T23:42:01.462Z,90.00
2018-05-27T23:44:29.228Z,90.00
2018-05-27T23:46:56.927Z,90.40
2018-05-27T23:49:25.438Z,90.70
2018-05-27T23:51:53.115Z,90.70
2018-05-27T23:54:20.851Z,90.90
2018-05-27T23:56:49.318Z,90.90
2018-05-27T23:59:17.030Z,90.90
